Time;durP1;ratioP1;P1;durP2;ratioP2;P2;SDS_P1;SDS_P2;PMS_P1;PMS_P2;Temp;Humidity;BMP_temperature;BMP_pressure;BME280_temperature;BME280_humidity;BME280_pressure;Samples;Min_cycle;Max_cycle;Signal;HPM_P1;HPM_P2
2022/12/14 00:01:14;;;;;;;25.90;11.50;;;;;;;;;;6208102;23;20362;-53
2022/12/14 00:03:48;;;;;;;31.85;11.43;;;;;;;;;;6208592;23;20095;-51
2022/12/14 00:06:21;;;;;;;25.17;10.38;;;;;;;;;;6207191;23;20030;-51
2022/12/14 00:08:49;;;;;;;25.42;10.85;;;;;;;;;;6208035;23;20027;-45
2022/12/14 00:11:22;;;;;;;23.27;9.98;;;;;;;;;;6207162;23;20023;-47
2022/12/14 00:13:54;;;;;;;23.02;10.40;;;;;;;;;;6208373;23;20111;-47
2022/12/14 00:16:21;;;;;;;25.75;10.88;;;;;;;;;;6204457;23;20444;-44
2022/12/14 00:19:04;;;;;;;24.80;11.02;;;;;;;;;;6206605;23;20104;-42
2022/12/14 00:21:31;;;;;;;26.08;11.05;;;;;;;;;;6207935;23;20025;-46
2022/12/14 00:24:05;;;;;;;20.08;9.60;;;;;;;;;;6207535;23;20024;-47
2022/12/14 00:26:33;;;;;;;29.15;10.13;;;;;;;;;;6207461;23;20055;-57
2022/12/14 00:29:01;;;;;;;22.73;9.73;;;;;;;;;;6206565;23;20596;-51
2022/12/14 00:31:35;;;;;;;17.95;9.20;;;;;;;;;;6207580;23;20024;-54
2022/12/14 00:34:02;;;;;;;24.50;10.98;;;;;;;;;;6179284;23;20767;-49
2022/12/14 00:36:36;;;;;;;27.92;10.35;;;;;;;;;;6207027;23;20060;-52
2022/12/14 00:39:04;;;;;;;22.67;10.27;;;;;;;;;;6207370;23;20103;-50
2022/12/14 00:41:31;;;;;;;24.27;11.02;;;;;;;;;;6207178;23;20029;-48
2022/12/14 00:44:04;;;;;;;26.60;11.63;;;;;;;;;;6208257;23;20023;-43
2022/12/14 00:46:31;;;;;;;26.17;11.88;;;;;;;;;;6210594;23;20387;-51
2022/12/14 00:48:59;;;;;;;31.08;10.98;;;;;;;;;;6208547;23;20108;-53
2022/12/14 00:51:32;;;;;;;37.50;13.02;;;;;;;;;;6209189;23;20546;-55
2022/12/14 00:53:59;;;;;;;35.92;13.00;;;;;;;;;;6209828;23;20043;-54
2022/12/14 00:56:34;;;;;;;38.50;13.43;;;;;;;;;;6210934;23;20017;-52
2022/12/14 00:59:01;;;;;;;38.78;15.73;;;;;;;;;;6209961;23;20108;-54
2022/12/14 01:01:29;;;;;;;48.05;17.15;;;;;;;;;;6210117;23;20027;-50
2022/12/14 01:04:18;;;;;;;34.67;14.20;;;;;;;;;;6209390;23;20024;-62
2022/12/14 01:06:46;;;;;;;36.83;15.90;;;;;;;;;;6208461;23;20025;-63
2022/12/14 01:09:21;;;;;;;50.83;18.17;;;;;;;;;;6209690;23;20020;-63
2022/12/14 01:11:48;;;;;;;50.88;18.05;;;;;;;;;;6206980;23;20111;-63
2022/12/14 01:14:22;;;;;;;43.35;16.65;;;;;;;;;;6208679;23;20020;-63
2022/12/14 01:16:56;;;;;;;40.92;14.98;;;;;;;;;;6209245;23;20031;-63
2022/12/14 01:19:37;;;;;;;55.30;19.38;;;;;;;;;;6209400;23;20104;-63
2022/12/14 01:22:04;;;;;;;43.85;16.80;;;;;;;;;;6207581;23;20096;-51
2022/12/14 01:24:38;;;;;;;45.35;17.55;;;;;;;;;;6208871;23;20166;-45
2022/12/14 01:27:05;;;;;;;43.47;14.98;;;;;;;;;;6208407;23;20031;-44
2022/12/14 01:29:33;;;;;;;41.20;17.00;;;;;;;;;;6207777;23;20023;-44
2022/12/14 01:32:06;;;;;;;44.08;15.10;;;;;;;;;;6208335;23;20043;-44
2022/12/14 01:34:33;;;;;;;52.05;19.23;;;;;;;;;;6208548;23;20031;-44
2022/12/14 01:37:07;;;;;;;49.95;18.45;;;;;;;;;;6208684;23;20027;-44
2022/12/14 01:39:34;;;;;;;50.58;19.27;;;;;;;;;;6209629;23;20052;-52
2022/12/14 01:42:01;;;;;;;56.80;19.95;;;;;;;;;;6209249;23;20349;-63
2022/12/14 01:44:35;;;;;;;50.00;19.85;;;;;;;;;;6208951;23;20028;-53
2022/12/14 01:47:08;;;;;;;48.95;18.08;;;;;;;;;;6208451;23;20017;-52
2022/12/14 01:49:45;;;;;;;55.75;19.73;;;;;;;;;;6208476;23;20099;-48
2022/12/14 01:52:28;;;;;;;44.80;16.98;;;;;;;;;;6209025;23;20651;-53
2022/12/14 01:55:05;;;;;;;47.05;17.67;;;;;;;;;;6208294;23;20017;-48
2022/12/14 01:57:41;;;;;;;41.25;17.27;;;;;;;;;;6208816;23;20020;-50
2022/12/14 02:00:15;;;;;;;44.95;17.92;;;;;;;;;;6209345;23;20020;-44
2022/12/14 02:02:52;;;;;;;52.45;18.42;;;;;;;;;;6209847;23;20055;-47
2022/12/14 02:05:27;;;;;;;48.65;18.08;;;;;;;;;;6209041;23;20020;-45
2022/12/14 02:07:55;;;;;;;43.30;17.92;;;;;;;;;;6209847;23;20099;-47
2022/12/14 02:10:25;;;;;;;47.40;16.98;;;;;;;;;;6209078;23;20021;-45
2022/12/14 02:13:17;;;;;;;39.92;16.08;;;;;;;;;;6209397;23;20120;-44
2022/12/14 02:15:45;;;;;;;43.38;16.02;;;;;;;;;;6208033;23;20425;-45
2022/12/14 02:18:34;;;;;;;47.80;17.10;;;;;;;;;;6208908;23;20127;-48
2022/12/14 02:21:16;;;;;;;43.63;17.45;;;;;;;;;;6207662;23;20478;-63
2022/12/14 02:23:53;;;;;;;41.83;17.20;;;;;;;;;;6207631;23;20027;-51
2022/12/14 02:26:40;;;;;;;46.38;17.90;;;;;;;;;;6207244;23;20028;-50
2022/12/14 02:29:16;;;;;;;45.35;18.10;;;;;;;;;;6207599;23;20017;-48
2022/12/14 02:31:47;;;;;;;44.72;18.70;;;;;;;;;;6208859;23;20071;-50
2022/12/14 02:34:21;;;;;;;;;;;;;;;;;;6208140;23;20031;-52
2022/12/14 02:37:09;;;;;;;45.25;17.15;;;;;;;;;;6208080;23;19916;-62
2022/12/14 02:40:01;;;;;;;49.13;19.60;;;;;;;;;;6209290;23;20708;-64
2022/12/14 02:42:38;;;;;;;57.45;18.90;;;;;;;;;;6207259;23;20027;-44
2022/12/14 02:45:23;;;;;;;45.10;17.23;;;;;;;;;;6208806;23;20026;-44
2022/12/14 02:47:57;;;;;;;55.90;19.08;;;;;;;;;;6208001;23;20031;-46
2022/12/14 02:50:36;;;;;;;52.72;21.13;;;;;;;;;;6208988;23;20024;-45
2022/12/14 02:53:09;;;;;;;52.28;20.60;;;;;;;;;;6209269;23;20465;-44
2022/12/14 02:55:45;;;;;;;60.20;21.23;;;;;;;;;;6206313;23;20024;-49
2022/12/14 02:58:20;;;;;;;57.10;20.52;;;;;;;;;;6207563;23;20120;-52
2022/12/14 03:00:55;;;;;;;57.95;20.10;;;;;;;;;;6207680;23;20043;-63
2022/12/14 03:03:23;;;;;;;58.75;20.85;;;;;;;;;;6208664;23;20024;-62
2022/12/14 03:05:54;;;;;;;74.85;21.70;;;;;;;;;;6180779;23;20481;-63
2022/12/14 03:08:30;;;;;;;64.47;21.52;;;;;;;;;;6209561;23;20052;-63
2022/12/14 03:11:00;;;;;;;72.30;21.90;;;;;;;;;;6207738;23;20031;-63
2022/12/14 03:13:35;;;;;;;61.40;19.83;;;;;;;;;;6208661;23;20128;-63
2022/12/14 03:16:06;;;;;;;76.78;23.65;;;;;;;;;;6206741;23;20464;-51
2022/12/14 03:19:13;;;;;;;74.80;24.20;;;;;;;;;;6207161;23;20469;-48
2022/12/14 03:21:55;;;;;;;57.55;20.67;;;;;;;;;;6190812;23;20027;-48
2022/12/14 03:24:37;;;;;;;72.22;21.75;;;;;;;;;;6208305;23;20021;-49
2022/12/14 03:27:19;;;;;;;79.30;21.67;;;;;;;;;;6206263;23;20028;-54
2022/12/14 03:29:57;;;;;;;71.05;20.90;;;;;;;;;;6208848;23;20060;-50
2022/12/14 03:32:31;;;;;;;63.70;19.95;;;;;;;;;;6207275;23;20024;-51
2022/12/14 03:35:01;;;;;;;65.00;21.38;;;;;;;;;;6207727;23;20788;-50
2022/12/14 03:37:41;;;;;;;63.05;20.42;;;;;;;;;;6208880;23;20573;-45
2022/12/14 03:40:09;;;;;;;73.88;21.17;;;;;;;;;;6207206;23;20024;-65
2022/12/14 03:43:12;;;;;;;63.03;20.33;;;;;;;;;;6208095;23;20020;-64
2022/12/14 03:45:58;;;;;;;73.88;18.95;;;;;;;;;;6178422;23;20547;-65
2022/12/14 03:48:42;;;;;;;59.10;18.15;;;;;;;;;;6208291;23;20020;-65
2022/12/14 03:51:33;;;;;;;45.42;16.02;;;;;;;;;;6209316;23;20021;-64
2022/12/14 03:54:15;;;;;;;57.58;17.42;;;;;;;;;;6147035;23;20462;-53
2022/12/14 03:56:54;;;;;;;53.00;16.60;;;;;;;;;;6208588;23;20021;-54
2022/12/14 03:59:26;;;;;;;70.72;14.25;;;;;;;;;;6208991;23;20099;-51
2022/12/14 04:02:09;;;;;;;50.72;14.32;;;;;;;;;;6208365;23;20031;-53
2022/12/14 04:04:53;;;;;;;51.85;14.43;;;;;;;;;;6208625;23;20056;-51
2022/12/14 04:07:26;;;;;;;39.17;13.23;;;;;;;;;;6206884;23;20027;-55
2022/12/14 04:10:00;;;;;;;43.40;13.75;;;;;;;;;;6208174;23;20486;-53
2022/12/14 04:21:33;;;;;;;36.40;10.60;;;;;;;;;;6208761;23;20418;-65
2022/12/14 04:27:00;;;;;;;32.22;10.23;;;;;;;;;;6208541;23;20355;-65
2022/12/14 04:32:30;;;;;;;46.55;12.27;;;;;;;;;;6207685;23;20101;-56
2022/12/14 04:35:17;;;;;;;43.22;11.40;;;;;;;;;;6207922;23;20032;-49
2022/12/14 04:38:10;;;;;;;44.60;11.52;;;;;;;;;;6208114;23;20031;-52
2022/12/14 04:40:41;;;;;;;41.15;11.52;;;;;;;;;;6208114;23;20438;-53
2022/12/14 04:43:18;;;;;;;51.58;12.98;;;;;;;;;;6209423;23;20021;-49
2022/12/14 04:45:52;;;;;;;78.93;15.85;;;;;;;;;;6208639;23;20016;-52
2022/12/14 04:48:38;;;;;;;66.78;13.52;;;;;;;;;;6208475;23;20083;-48
2022/12/14 04:51:14;;;;;;;37.63;10.15;;;;;;;;;;6207994;23;20021;-62
2022/12/14 04:53:50;;;;;;;30.83;8.77;;;;;;;;;;6182583;23;20467;-53
2022/12/14 04:56:41;;;;;;;36.75;10.23;;;;;;;;;;6207105;23;20541;-63
2022/12/14 04:59:15;;;;;;;41.70;11.02;;;;;;;;;;6205813;23;20027;-62
2022/12/14 05:01:49;;;;;;;31.38;10.00;;;;;;;;;;6206988;23;20092;-65
2022/12/14 05:04:53;;;;;;;30.02;9.52;;;;;;;;;;6204330;23;20021;-61
2022/12/14 05:07:24;;;;;;;41.47;9.57;;;;;;;;;;6203533;23;20031;-62
2022/12/14 05:10:00;;;;;;;36.00;9.48;;;;;;;;;;6203735;23;20048;-49
2022/12/14 05:12:35;;;;;;;40.55;9.90;;;;;;;;;;6203464;23;20025;-48
2022/12/14 05:15:09;;;;;;;38.33;10.50;;;;;;;;;;6207250;23;20342;-45
2022/12/14 05:17:49;;;;;;;35.88;10.13;;;;;;;;;;6206804;23;20016;-48
2022/12/14 05:20:23;;;;;;;46.97;10.65;;;;;;;;;;6206351;23;20024;-43
2022/12/14 05:23:05;;;;;;;37.17;10.25;;;;;;;;;;6205198;23;20107;-45
2022/12/14 05:25:46;;;;;;;40.92;11.25;;;;;;;;;;6206030;23;20099;-47
2022/12/14 05:28:15;;;;;;;47.20;10.60;;;;;;;;;;6205068;23;20017;-45
2022/12/14 05:30:49;;;;;;;43.65;10.25;;;;;;;;;;6206641;23;20056;-55
2022/12/14 05:33:20;;;;;;;41.35;10.40;;;;;;;;;;6205963;23;20024;-66
2022/12/14 05:35:47;;;;;;;32.20;9.55;;;;;;;;;;6209023;23;20462;-66
2022/12/14 05:38:21;;;;;;;35.75;9.23;;;;;;;;;;6206054;23;20021;-65
2022/12/14 05:40:48;;;;;;;33.50;9.75;;;;;;;;;;6206784;23;20027;-66
2022/12/14 05:43:22;;;;;;;45.17;8.70;;;;;;;;;;6207904;23;20051;-65
2022/12/14 05:45:50;;;;;;;29.73;8.90;;;;;;;;;;6206578;23;20032;-65
2022/12/14 05:48:17;;;;;;;39.25;10.80;;;;;;;;;;6207401;23;20032;-51
2022/12/14 05:50:50;;;;;;;38.78;9.95;;;;;;;;;;6204872;23;20036;-54
2022/12/14 05:53:17;;;;;;;6.15;2.92;;;;;;;;;;6203499;23;20020;-58
2022/12/14 05:55:52;;;;;;;7.32;3.95;;;;;;;;;;6207719;23;20028;-56
2022/12/14 05:58:19;;;;;;;17.50;3.65;;;;;;;;;;6207249;23;20569;-54
2022/12/14 06:00:46;;;;;;;10.63;3.58;;;;;;;;;;6209325;23;20091;-56
2022/12/14 06:03:20;;;;;;;17.77;4.32;;;;;;;;;;6184643;23;20035;-53
2022/12/14 06:05:47;;;;;;;11.95;3.50;;;;;;;;;;6208200;23;20549;-55
2022/12/14 06:08:21;;;;;;;16.38;3.33;;;;;;;;;;6209678;23;20024;-64
2022/12/14 06:10:48;;;;;;;9.90;3.05;;;;;;;;;;6209242;23;20027;-62
2022/12/14 06:13:16;;;;;;;7.63;3.13;;;;;;;;;;6208505;23;20031;-62
2022/12/14 06:15:49;;;;;;;10.00;2.85;;;;;;;;;;6208460;23;20052;-62
2022/12/14 06:18:17;;;;;;;8.18;3.45;;;;;;;;;;6209442;23;20032;-62
2022/12/14 06:20:58;;;;;;;15.15;3.30;;;;;;;;;;6209592;23;20027;-62
2022/12/14 06:23:25;;;;;;;7.60;2.95;;;;;;;;;;6208719;23;20478;-62
2022/12/14 06:25:59;;;;;;;7.63;2.72;;;;;;;;;;6209277;23;20017;-51
2022/12/14 06:28:26;;;;;;;10.13;2.70;;;;;;;;;;6208796;23;20025;-53
2022/12/14 06:30:54;;;;;;;8.27;2.92;;;;;;;;;;6209058;23;20055;-50
2022/12/14 06:33:28;;;;;;;14.00;5.43;;;;;;;;;;6210325;23;20029;-51
2022/12/14 06:35:56;;;;;;;16.15;5.22;;;;;;;;;;6209880;23;20031;-49
2022/12/14 06:38:29;;;;;;;8.57;3.90;;;;;;;;;;6208926;23;20071;-48
2022/12/14 06:40:57;;;;;;;11.95;3.40;;;;;;;;;;6209427;23;20475;-53
2022/12/14 06:43:25;;;;;;;13.80;3.70;;;;;;;;;;6210308;23;20099;-47
2022/12/14 06:45:58;;;;;;;6.40;3.35;;;;;;;;;;6209454;23;20046;-50
2022/12/14 06:48:25;;;;;;;6.82;3.17;;;;;;;;;;6183744;23;20466;-62
2022/12/14 06:51:00;;;;;;;13.48;3.20;;;;;;;;;;6209879;23;20102;-62
2022/12/14 06:53:27;;;;;;;15.57;3.20;;;;;;;;;;6208765;23;20025;-61
2022/12/14 06:55:55;;;;;;;11.85;3.50;;;;;;;;;;6209597;23;20040;-62
2022/12/14 06:58:28;;;;;;;12.02;3.38;;;;;;;;;;6210289;23;20029;-62
2022/12/14 07:01:06;;;;;;;7.88;3.05;;;;;;;;;;6209380;23;20024;-62
2022/12/14 07:03:40;;;;;;;11.60;3.58;;;;;;;;;;6208832;23;20048;-62
2022/12/14 07:06:07;;;;;;;14.77;4.00;;;;;;;;;;6209230;23;20114;-49
2022/12/14 07:08:35;;;;;;;13.45;3.53;;;;;;;;;;6207970;23;20107;-52
2022/12/14 07:11:10;;;;;;;7.78;3.90;;;;;;;;;;6208921;23;20027;-56
2022/12/14 07:13:38;;;;;;;12.35;4.03;;;;;;;;;;6209208;23;20099;-55
2022/12/14 07:16:18;;;;;;;13.40;4.53;;;;;;;;;;6206664;23;20087;-56
2022/12/14 07:18:52;;;;;;;11.68;3.75;;;;;;;;;;6209062;23;20024;-55
2022/12/14 07:21:26;;;;;;;11.55;4.18;;;;;;;;;;6208812;23;20585;-52
2022/12/14 07:23:54;;;;;;;11.02;3.80;;;;;;;;;;6208777;23;20024;-55
2022/12/14 07:26:23;;;;;;;12.55;4.05;;;;;;;;;;6209443;23;20143;-60
2022/12/14 07:28:58;;;;;;;14.23;4.95;;;;;;;;;;6208908;23;20027;-62
2022/12/14 07:31:26;;;;;;;16.63;4.68;;;;;;;;;;6208906;23;20095;-62
2022/12/14 07:33:54;;;;;;;8.35;3.85;;;;;;;;;;6210490;23;20023;-62
2022/12/14 07:36:29;;;;;;;15.32;4.65;;;;;;;;;;6209105;23;20765;-61
2022/12/14 07:38:57;;;;;;;11.30;3.72;;;;;;;;;;6208100;23;20104;-61
2022/12/14 07:41:31;;;;;;;9.63;4.20;;;;;;;;;;6209868;23;20321;-44
2022/12/14 07:43:59;;;;;;;8.90;4.93;;;;;;;;;;6209097;23;20487;-53
2022/12/14 07:46:27;;;;;;;16.00;4.22;;;;;;;;;;6208745;23;20043;-49
2022/12/14 07:49:01;;;;;;;9.88;4.90;;;;;;;;;;6185040;23;20028;-52
2022/12/14 07:51:30;;;;;;;11.93;5.03;;;;;;;;;;6209285;23;20025;-52
2022/12/14 07:54:05;;;;;;;12.93;5.05;;;;;;;;;;6207706;23;20025;-51
2022/12/14 07:56:34;;;;;;;8.13;4.40;;;;;;;;;;6208871;23;20038;-48
2022/12/14 07:59:11;;;;;;;11.07;4.13;;;;;;;;;;6209024;23;20021;-48
2022/12/14 08:01:39;;;;;;;12.55;3.58;;;;;;;;;;6209054;23;20382;-46
2022/12/14 08:04:07;;;;;;;6.57;3.53;;;;;;;;;;6207819;23;20020;-47
2022/12/14 08:06:42;;;;;;;13.93;3.35;;;;;;;;;;6207223;23;20103;-52
2022/12/14 08:09:09;;;;;;;;;;;;;;;;;;6208034;23;20104;-52
2022/12/14 08:11:42;;;;;;;10.00;2.95;;;;;;;;;;6208259;23;20400;-51
2022/12/14 08:14:12;;;;;;;6.70;3.10;;;;;;;;;;6208066;23;20021;-55
2022/12/14 08:16:39;;;;;;;5.68;3.25;;;;;;;;;;6207372;23;20103;-52
2022/12/14 08:19:27;;;;;;;11.13;3.70;;;;;;;;;;6207049;23;20025;-53
2022/12/14 08:22:01;;;;;;;10.43;3.00;;;;;;;;;;6183246;23;20373;-50
2022/12/14 08:24:35;;;;;;;6.75;2.67;;;;;;;;;;6208144;23;20032;-51
2022/12/14 08:27:15;;;;;;;4.97;2.92;;;;;;;;;;6207830;23;20023;-50
2022/12/14 08:29:42;;;;;;;6.10;2.90;;;;;;;;;;6207163;23;20025;-47
2022/12/14 08:32:17;;;;;;;9.48;2.88;;;;;;;;;;6208696;23;20027;-49
2022/12/14 08:34:45;;;;;;;7.90;2.85;;;;;;;;;;6206875;23;20428;-54
2022/12/14 08:37:12;;;;;;;8.25;3.55;;;;;;;;;;6207557;23;20020;-50
2022/12/14 08:39:46;;;;;;;9.57;3.33;;;;;;;;;;6208492;23;20031;-62
2022/12/14 08:42:15;;;;;;;6.68;3.28;;;;;;;;;;6208110;23;20359;-62
2022/12/14 08:44:49;;;;;;;10.18;3.72;;;;;;;;;;6207999;23;20025;-44
2022/12/14 08:47:16;;;;;;;5.43;3.38;;;;;;;;;;6208200;23;20100;-45
2022/12/14 08:49:44;;;;;;;9.10;3.70;;;;;;;;;;6207264;23;20071;-44
2022/12/14 08:52:20;;;;;;;7.22;2.97;;;;;;;;;;6207285;23;20458;-45
2022/12/14 08:54:47;;;;;;;7.18;2.90;;;;;;;;;;6206870;23;20020;-44
2022/12/14 08:57:20;;;;;;;7.70;3.28;;;;;;;;;;6208033;23;20024;-44
2022/12/14 08:59:48;;;;;;;5.90;3.33;;;;;;;;;;6207218;23;20411;-66
2022/12/14 09:02:27;;;;;;;6.15;3.22;;;;;;;;;;6208740;23;20024;-66
2022/12/14 09:05:01;;;;;;;6.28;3.22;;;;;;;;;;6209310;23;20036;-65
2022/12/14 09:07:29;;;;;;;6.65;3.53;;;;;;;;;;6209317;23;20025;-66
2022/12/14 09:09:57;;;;;;;5.28;3.55;;;;;;;;;;6210418;23;20052;-66
2022/12/14 09:12:31;;;;;;;6.35;3.25;;;;;;;;;;6209919;23;20044;-66
2022/12/14 09:14:59;;;;;;;11.50;3.40;;;;;;;;;;6210277;23;20020;-66
2022/12/14 09:17:34;;;;;;;10.55;3.38;;;;;;;;;;6210755;23;20028;-62
2022/12/14 09:20:08;;;;;;;6.22;3.72;;;;;;;;;;6209078;23;20020;-51
2022/12/14 09:22:42;;;;;;;5.07;2.92;;;;;;;;;;6209199;23;20099;-50
2022/12/14 09:25:09;;;;;;;;;;;;;;;;;;6210578;23;20482;-51
2022/12/14 09:27:36;;;;;;;8.23;3.30;;;;;;;;;;6208323;23;19998;-55
2022/12/14 09:30:09;;;;;;;9.38;3.95;;;;;;;;;;6210051;23;20031;-49
2022/12/14 09:32:38;;;;;;;8.68;3.30;;;;;;;;;;6209138;23;20021;-51
2022/12/14 09:35:16;;;;;;;5.85;3.10;;;;;;;;;;6209906;23;20031;-52
2022/12/14 09:37:44;;;;;;;7.22;3.25;;;;;;;;;;6209083;23;20035;-62
2022/12/14 09:40:12;;;;;;;4.63;3.10;;;;;;;;;;6208851;23;20028;-53
2022/12/14 09:42:56;;;;;;;8.27;3.58;;;;;;;;;;6208043;23;20328;-53
2022/12/14 09:45:29;;;;;;;6.00;2.45;;;;;;;;;;6209089;23;20103;-55
2022/12/14 09:48:15;;;;;;;7.78;3.33;;;;;;;;;;6208828;23;20048;-51
2022/12/14 09:50:51;;;;;;;11.55;3.22;;;;;;;;;;6209392;23;20103;-57
2022/12/14 09:53:34;;;;;;;8.50;3.55;;;;;;;;;;6208577;23;20058;-56
2022/12/14 09:56:03;;;;;;;7.57;3.17;;;;;;;;;;6210365;23;20029;-45
2022/12/14 09:58:37;;;;;;;4.70;2.90;;;;;;;;;;6209192;23;20484;-54
2022/12/14 10:01:11;;;;;;;6.75;3.00;;;;;;;;;;6183428;23;20043;-57
2022/12/14 10:03:48;;;;;;;7.80;3.65;;;;;;;;;;6209728;23;20036;-54
2022/12/14 10:06:22;;;;;;;5.90;3.22;;;;;;;;;;6209502;23;20029;-54
2022/12/14 10:08:54;;;;;;;7.40;3.08;;;;;;;;;;6208536;23;20062;-54
2022/12/14 10:11:34;;;;;;;6.40;3.10;;;;;;;;;;6209790;23;20533;-56
2022/12/14 10:14:04;;;;;;;6.45;2.85;;;;;;;;;;6208802;23;20037;-62
2022/12/14 10:16:47;;;;;;;5.95;3.40;;;;;;;;;;6184408;23;20027;-52
2022/12/14 10:19:23;;;;;;;7.32;3.30;;;;;;;;;;6207896;23;20104;-47
2022/12/14 10:22:03;;;;;;;4.00;2.97;;;;;;;;;;6208179;23;20055;-47
2022/12/14 10:24:35;;;;;;;4.93;3.13;;;;;;;;;;6209963;23;20100;-44
2022/12/14 10:27:13;;;;;;;6.20;3.75;;;;;;;;;;6210467;23;20021;-44
2022/12/14 10:29:46;;;;;;;8.40;3.88;;;;;;;;;;6210325;23;20025;-44
2022/12/14 10:32:29;;;;;;;8.65;4.03;;;;;;;;;;6210491;23;20044;-45
2022/12/14 10:35:16;;;;;;;6.80;3.83;;;;;;;;;;6209818;23;20024;-46
2022/12/14 10:38:10;;;;;;;5.40;2.85;;;;;;;;;;6208109;23;20477;-65
2022/12/14 10:40:42;;;;;;;5.78;3.45;;;;;;;;;;6210349;23;20016;-65
2022/12/14 10:43:42;;;;;;;8.50;4.03;;;;;;;;;;6209174;23;20048;-65
2022/12/14 10:46:21;;;;;;;6.85;4.80;;;;;;;;;;6209737;23;20095;-65
2022/12/14 10:48:58;;;;;;;9.38;4.72;;;;;;;;;;6209670;23;20017;-65
2022/12/14 10:51:32;;;;;;;7.35;4.03;;;;;;;;;;6209341;23;20031;-65
2022/12/14 10:54:03;;;;;;;8.25;4.05;;;;;;;;;;6208938;23;20104;-66
2022/12/14 10:56:38;;;;;;;9.57;5.13;;;;;;;;;;6208678;23;20033;-47
2022/12/14 10:59:25;;;;;;;6.85;4.03;;;;;;;;;;6208943;23;20163;-47
2022/12/14 11:02:29;;;;;;;6.40;3.97;;;;;;;;;;6208098;23;20028;-48
2022/12/14 11:05:02;;;;;;;7.70;3.78;;;;;;;;;;6208023;23;20074;-50
2022/12/14 11:07:38;;;;;;;6.65;4.10;;;;;;;;;;6209044;23;20039;-49
2022/12/14 11:10:15;;;;;;;8.02;4.32;;;;;;;;;;6208843;23;20025;-48
2022/12/14 11:12:58;;;;;;;5.88;4.03;;;;;;;;;;6207526;23;20474;-52
2022/12/14 11:15:32;;;;;;;7.22;3.78;;;;;;;;;;6208764;23;20131;-50
2022/12/14 11:18:18;;;;;;;8.07;4.18;;;;;;;;;;6207439;23;20035;-52
2022/12/14 11:20:56;;;;;;;6.25;3.53;;;;;;;;;;6207995;23;20024;-49
2022/12/14 11:23:36;;;;;;;8.20;3.83;;;;;;;;;;6209191;23;20035;-49
2022/12/14 11:26:26;;;;;;;8.25;3.78;;;;;;;;;;6208441;23;20405;-50
2022/12/14 11:29:01;;;;;;;6.57;3.92;;;;;;;;;;6208725;23;20108;-52
2022/12/14 11:31:37;;;;;;;11.45;3.67;;;;;;;;;;6209089;23;20025;-52
2022/12/14 11:34:31;;;;;;;9.13;4.07;;;;;;;;;;6209261;23;20048;-62
2022/12/14 11:37:18;;;;;;;6.95;4.07;;;;;;;;;;6209030;23;20499;-62
2022/12/14 11:39:55;;;;;;;8.50;3.92;;;;;;;;;;6209666;23;20052;-63
2022/12/14 11:42:22;;;;;;;8.57;4.20;;;;;;;;;;6208658;23;20038;-61
2022/12/14 11:44:50;;;;;;;6.85;3.50;;;;;;;;;;6209313;23;20044;-62
2022/12/14 11:47:25;;;;;;;8.48;3.70;;;;;;;;;;6208243;23;20478;-62
2022/12/14 11:49:53;;;;;;;6.00;3.83;;;;;;;;;;6207001;23;20103;-50
2022/12/14 11:52:36;;;;;;;7.10;3.65;;;;;;;;;;6209271;23;20023;-50
2022/12/14 11:55:14;;;;;;;6.53;3.80;;;;;;;;;;6209189;23;20027;-62
2022/12/14 11:57:53;;;;;;;6.07;3.58;;;;;;;;;;6207092;23;20032;-63
2022/12/14 12:00:22;;;;;;;6.68;3.80;;;;;;;;;;6208737;23;20099;-62
2022/12/14 12:02:59;;;;;;;7.00;4.30;;;;;;;;;;6207016;23;20505;-63
2022/12/14 12:05:28;;;;;;;8.02;4.55;;;;;;;;;;6208445;23;20024;-62
2022/12/14 12:08:01;;;;;;;6.70;3.90;;;;;;;;;;6207533;23;20116;-53
2022/12/14 12:10:43;;;;;;;8.60;4.90;;;;;;;;;;6208364;23;20103;-61
2022/12/14 12:13:26;;;;;;;7.78;4.25;;;;;;;;;;6207659;23;20021;-50
2022/12/14 12:15:55;;;;;;;9.02;3.90;;;;;;;;;;6207184;23;20111;-49
2022/12/14 12:18:41;;;;;;;6.97;3.97;;;;;;;;;;6206534;23;20051;-52
2022/12/14 12:21:21;;;;;;;7.05;4.15;;;;;;;;;;6207699;23;20143;-49
2022/12/14 12:23:56;;;;;;;9.82;4.45;;;;;;;;;;6208378;23;20462;-50
2022/12/14 12:26:26;;;;;;;7.10;3.72;;;;;;;;;;6206567;23;20504;-52
2022/12/14 12:29:13;;;;;;;6.68;3.80;;;;;;;;;;6207823;23;20095;-50
2022/12/14 12:32:06;;;;;;;8.23;4.45;;;;;;;;;;6191095;23;20044;-51
2022/12/14 12:34:37;;;;;;;11.13;4.57;;;;;;;;;;6207697;23;20120;-48
2022/12/14 12:37:14;;;;;;;7.05;4.05;;;;;;;;;;6208848;23;20021;-57
2022/12/14 12:39:56;;;;;;;8.30;3.90;;;;;;;;;;6206822;23;20140;-50
2022/12/14 12:42:30;;;;;;;6.35;4.00;;;;;;;;;;6208414;23;20055;-54
2022/12/14 12:45:02;;;;;;;9.23;4.40;;;;;;;;;;6206289;23;20052;-52
2022/12/14 12:47:44;;;;;;;5.82;3.80;;;;;;;;;;6207256;23;20497;-44
2022/12/14 12:50:19;;;;;;;6.85;3.80;;;;;;;;;;6209625;23;20025;-61
2022/12/14 12:53:15;;;;;;;6.22;3.58;;;;;;;;;;6209012;23;20044;-61
2022/12/14 12:55:52;;;;;;;7.95;5.07;;;;;;;;;;6196057;23;20025;-61
2022/12/14 12:58:23;;;;;;;8.45;4.30;;;;;;;;;;6208282;23;20492;-61
2022/12/14 13:01:00;;;;;;;7.38;4.35;;;;;;;;;;6206726;23;20446;-61
2022/12/14 13:03:31;;;;;;;6.68;3.63;;;;;;;;;;6208189;23;20430;-63
2022/12/14 13:06:09;;;;;;;9.38;4.40;;;;;;;;;;6206945;23;20255;-59
2022/12/14 13:08:39;;;;;;;8.75;4.20;;;;;;;;;;6207742;23;20024;-51
2022/12/14 13:11:18;;;;;;;8.18;4.22;;;;;;;;;;6183515;23;20020;-54
2022/12/14 13:14:23;;;;;;;6.35;3.92;;;;;;;;;;6207437;23;20031;-54
2022/12/14 13:16:57;;;;;;;5.75;3.80;;;;;;;;;;6182978;23;20059;-54
2022/12/14 13:19:44;;;;;;;6.53;4.03;;;;;;;;;;6169058;23;20033;-52
2022/12/14 13:22:26;;;;;;;5.85;4.18;;;;;;;;;;6152722;23;20475;-56
2022/12/14 13:24:54;;;;;;;6.40;4.25;;;;;;;;;;6177858;23;20116;-53
2022/12/14 13:27:47;;;;;;;10.45;4.47;;;;;;;;;;6178071;23;20100;-46
2022/12/14 13:30:34;;;;;;;4.95;3.45;;;;;;;;;;6158550;23;20561;-53
2022/12/14 13:33:27;;;;;;;6.32;3.25;;;;;;;;;;6177843;23;20060;-53
2022/12/14 13:36:08;;;;;;;5.63;3.92;;;;;;;;;;6177037;23;20123;-57
2022/12/14 13:39:01;;;;;;;6.00;3.88;;;;;;;;;;6177046;23;20509;-55
2022/12/14 13:41:34;;;;;;;6.57;3.30;;;;;;;;;;6177601;23;20025;-51
2022/12/14 13:44:27;;;;;;;7.30;4.53;;;;;;;;;;6177771;23;20029;-52
2022/12/14 13:47:03;;;;;;;9.43;4.55;;;;;;;;;;6177321;23;20558;-45
2022/12/14 13:49:37;;;;;;;8.50;4.47;;;;;;;;;;6176757;23;20024;-49
2022/12/14 13:52:04;;;;;;;7.10;4.38;;;;;;;;;;6178993;23;20035;-50
2022/12/14 13:54:39;;;;;;;8.80;4.57;;;;;;;;;;6178188;23;20107;-49
2022/12/14 13:57:10;;;;;;;7.95;4.20;;;;;;;;;;6178838;23;20024;-55
2022/12/14 13:59:42;;;;;;;7.40;4.63;;;;;;;;;;6179747;23;20028;-50
2022/12/14 14:02:28;;;;;;;7.93;4.47;;;;;;;;;;6178710;23;20101;-55
2022/12/14 14:05:14;;;;;;;9.20;4.63;;;;;;;;;;6179471;23;20493;-52
2022/12/14 14:07:48;;;;;;;7.90;3.95;;;;;;;;;;6178792;23;20048;-52
2022/12/14 14:10:34;;;;;;;10.25;4.85;;;;;;;;;;6177836;23;20055;-56
2022/12/14 14:13:27;;;;;;;7.45;4.68;;;;;;;;;;6178393;23;20031;-53
2022/12/14 14:16:04;;;;;;;6.18;4.15;;;;;;;;;;6179007;23;20048;-53
2022/12/14 14:19:04;;;;;;;9.63;4.93;;;;;;;;;;6182827;23;20719;-51
2022/12/14 14:21:38;;;;;;;7.72;4.60;;;;;;;;;;6209034;23;20326;-63
2022/12/14 14:24:51;;;;;;;8.70;4.20;;;;;;;;;;6207775;23;20024;-57
2022/12/14 14:27:20;;;;;;;9.77;4.30;;;;;;;;;;6209245;23;20025;-50
2022/12/14 14:29:54;;;;;;;6.97;3.83;;;;;;;;;;6208701;23;20104;-45
2022/12/14 14:32:40;;;;;;;8.13;4.05;;;;;;;;;;6207728;23;20056;-47
2022/12/14 14:35:21;;;;;;;8.35;4.07;;;;;;;;;;6209372;23;20462;-46
2022/12/14 14:37:57;;;;;;;6.15;3.70;;;;;;;;;;6208104;23;20104;-47
2022/12/14 14:40:32;;;;;;;8.02;3.60;;;;;;;;;;6209352;23;20043;-56
2022/12/14 14:43:36;;;;;;;5.32;3.65;;;;;;;;;;6208073;23;20044;-67
2022/12/14 14:46:15;;;;;;;10.70;3.92;;;;;;;;;;6208799;23;20031;-63
2022/12/14 14:48:56;;;;;;;8.45;4.20;;;;;;;;;;6208877;23;20024;-63
2022/12/14 14:51:32;;;;;;;6.75;4.18;;;;;;;;;;6182858;23;20361;-63
2022/12/14 14:54:18;;;;;;;9.10;4.40;;;;;;;;;;6206969;23;20352;-63
2022/12/14 14:57:30;;;;;;;7.00;3.72;;;;;;;;;;6208946;23;20025;-63
2022/12/14 15:00:01;;;;;;;5.30;3.60;;;;;;;;;;6207805;23;20357;-56
2022/12/14 15:02:41;;;;;;;5.32;3.45;;;;;;;;;;6206262;23;20028;-64
2022/12/14 15:05:19;;;;;;;7.30;3.78;;;;;;;;;;6208328;23;20470;-57
2022/12/14 15:08:28;;;;;;;7.35;4.18;;;;;;;;;;6208225;23;20020;-55
2022/12/14 15:10:56;;;;;;;8.07;4.70;;;;;;;;;;6207856;23;20091;-59
2022/12/14 15:13:32;;;;;;;10.07;4.60;;;;;;;;;;6209037;23;20103;-54
2022/12/14 15:16:00;;;;;;;17.53;8.80;;;;;;;;;;6208053;23;20470;-59
2022/12/14 15:18:29;;;;;;;;;;;;;;;;;;6207989;23;20086;-57
2022/12/14 15:21:13;;;;;;;12.20;6.20;;;;;;;;;;6207575;23;20261;-51
2022/12/14 15:23:40;;;;;;;;;;;;;;;;;;6208877;23;20462;-54
2022/12/14 15:26:18;;;;;;;6.43;3.97;;;;;;;;;;6208536;23;20372;-55
2022/12/14 15:28:46;;;;;;;9.93;4.68;;;;;;;;;;6203910;23;20336;-54
2022/12/14 15:31:34;;;;;;;7.87;4.77;;;;;;;;;;6204697;23;20027;-55
2022/12/14 15:34:02;;;;;;;12.33;5.07;;;;;;;;;;6204968;23;20025;-54
2022/12/14 15:36:38;;;;;;;13.87;6.77;;;;;;;;;;6205003;23;20020;-54
2022/12/14 15:39:06;;;;;;;10.35;4.97;;;;;;;;;;6204594;23;20127;-55